Share

Wray, GA

Baymeadows Lake (KGADOUGL11) Elev 256 ft | 31.45 °N, 82.91 °W | Change Station

Current weather conditions updated 25 seconds ago

Overcast
Overcast
54.7 °F
Feels Like 54.7 °F
N
8.5
Wind Variable Wind from ENE
Gusts 8.7 mph
Sunrise 6:59 AM
Sunset 8:04 PM
Moon Waning Gibbous

Today is forecast to be nearly the same temperature as yesterday. Chance of showers.

Pressure 29.93 in
Visibility 10.0 miles
Clouds Overcast 500 ft
Dew Point 54 °F
Humidity 98%
Rainfall 0.08 in
Snow Depth Not available.
UV 0 out of 16
Pollen 5.50 out of 12
Air Quality Not available.
Flu Activity Sporadic
METAR KDQH 191115Z AUTO 04010KT 10SM OVC005 13/12 A2993 RMK AO2

More Conditions Fewer Conditions

Pressure 29.93 in
Visibility 10.0 miles
Clouds Overcast 500 ft
Dew Point 54 °F
Humidity 98%
Rainfall 0.08 in
Snow Depth Not available.
UV 0 out of 16
Pollen 5.50 out of 12
Air Quality Not available.
Flu Activity Sporadic
METAR KDQH 191115Z AUTO 04010KT 10SM OVC005 13/12 A2993 RMK AO2

More Conditions Fewer Conditions

10-Day Weather Forecast

Almanac

Astronomy

Apr. 19, 2014 Rise Set
Actual Time 6:59 AM EDT 8:04 PM EDT
Civil Twilight 6:34 AM EDT 8:29 PM EDT
Nautical Twilight 6:04 AM EDT 8:59 PM EDT
Astronomical Twilight 5:33 AM EDT 9:30 PM EDT
Moon No Moon Rise 10:25 AM EDT
Length of Visible Light 13h 54m
Length of Day
13h 04m
Tomorrow will be 1m 48s longer.
Waning Gibbous, 80% of the Moon is Illuminated
Today
Waning Gibbous
Apr 22
Last Quarter
Apr 29
New
May 6
First Quarter
May 14
Full

Today's Extremes

State Highs State Lows

Community

  • Bleeding Hearts
    Bleeding Hearts
  • Sunset Silhouettes
    Sunset Silhouettes
  • FL sunset Perico Isle
    FL sunset Perico Isle
  • Cloudy spring view
    Cloudy spring view
  • Old barn
    Old barn

WunderPhotos

Upload Photos

1,702,682 photos uploaded!

WunderBlogs® & News

Nearby

Snow Depth

Station Depth Elevation
No new snow has been reported.

Coastal Water Temperatures

Place Temperature
No Stations Reporting

Earthquake Activity

City Distance Mag. Time & Date
No recent earthquake activity has been reported nearby.
Minimum magnitude displayed is 2.5.

Nearby Weather Stations

Station Location Temp. Dew Point Humidity Wind Precip. Elev Updated Type
Baymeadows Lake, Douglas, GA 54.7 °F 54 °F 98% ENE  at  8.5 mph 0.00 in / hr 256 ft 7:37 AM EDT Rapid Fire
Douglas Golf Club Area, Douglas, GA 54.3 °F 54 °F 98% NNW  at  0.9 mph 0.00 in / hr 224 ft 7:32 AM EDT Rapid Fire
Jacksonville, GA 52.6 °F 52 °F 98% NNE  at  2.0 mph 0.00 in / hr 171 ft 7:30 AM EDT Normal
Forest Lakes, Tifton, GA 53.1 °F 53 °F 98% East  at  0.0 mph 0.05 in / hr 329 ft 7:35 AM EDT Normal

Show More Stations Show Fewer Stations

What do you think?

We're not finished. Please let us know what you like, what you don't like, and what you are still missing.